EGPK/PIK METAR and TAF weather

Enter ICAO airport designator
Station Type Date Time Source
EGPK METAR 2021/09/28 04:50 UTC NOAA

EGPK 280450Z 18009KT CAVOK 09/07 Q1008


Station Type Date Time Source
EGPK Decoded METAR 2021/09/28 04:50 UTC NOAA

Prestwick Airport, United Kingdom (EGPK) 55-30N 004-35W 0M
Sep 28, 2021 - 12:50 AM EDT / 2021.09.28 0450 UTC
Wind: from the S (180 degrees) at 10 MPH (9 KT):0
Visibility: greater than 7 mile(s):0
Temperature: 48 F (9 C)
Dew Point: 44 F (7 C)
Relative Humidity: 87%
Pressure (altimeter): 29.77 in. Hg (1008 hPa)
ob: EGPK 280450Z 18009KT CAVOK 09/07 Q1008
cycle: 5

Station Type Date Time Source
EGPK TAF 2021/09/28 06:09 UTC NOAA

TAF EGPK 280458Z 2806/2906 18010KT 9999 FEW025 PROB30
TEMPO 2806/2812 7000 -SHRA BKN014
TEMPO 2812/2820 5000 SHRA PROB30
TEMPO 2812/2818 3000 +SHRA BKN014 BKN020CB
BECMG 2814/2817 VRB03KT PROB40
TEMPO 2820/2906 7000 -SHRA BKN014
BECMG 2902/2904 28010KT

Example: see airport list